Date,TemperatureHighF,TemperatureAvgF,TemperatureLowF,DewpointHighF,DewpointAvgF,DewpointLowF,HumidityHigh,HumidityAvg,HumidityLow,PressureMaxIn,PressureMinIn,WindSpeedMaxMPH,WindSpeedAvgMPH,GustSpeedMaxMPH,PrecipitationSumIn
2013-8-1,94.0,80.0,68.3,59.5,53.3,45.9,69,43,23,30.23,30.05,0,0,0,0.00
2013-8-2,96.5,81.5,69.2,58.5,53.5,50.4,61,40,22,30.13,30.01,0,0,0,0.00
2013-8-3,97.8,82.3,69.2,58.2,52.9,48.7,58,38,22,30.15,30.03,0,0,0,0.00
2013-8-4,98.7,84.9,71.9,55.8,50.5,45.8,48,32,18,30.16,30.01,0,0,0,0.00
2013-8-5,97.6,82.8,71.5,58.7,52.2,47.7,52,36,22,30.15,30.00,0,0,0,0.00
2013-8-6,92.4,79.3,69.9,56.7,51.6,46.4,55,40,23,30.13,30.02,0,0,0,0.00
2013-8-7,88.4,76.5,66.8,54.4,51.6,48.1,59,43,27,30.14,30.00,0,0,0,0.00
2013-8-8,95.8,79.3,65.6,52.6,46.2,37.9,58,35,17,30.11,29.99,0,0,0,0.00
2013-8-9,97.4,82.1,67.2,48.3,40.8,31.6,37,25,11,30.14,30.04,0,0,0,0.00
2013-8-10,83.4,76.8,67.2,58.3,50.1,45.3,72,40,27,30.26,30.13,0,0,0,0.01
2013-8-11,88.8,70.2,57.6,72.5,58.6,54.4,90,70,38,30.24,30.10,0,0,0,0.86
2013-8-12,92.0,78.2,66.6,64.9,57.4,53.9,72,51,30,30.18,30.05,0,0,0,0.00
2013-8-13,94.0,77.4,67.9,62.1,57.3,52.3,77,53,26,30.20,30.05,0,0,0,0.03
2013-8-14,97.2,78.1,67.5,60.9,54.8,46.4,66,47,25,30.21,30.05,0,0,0,0.00
2013-8-15,94.4,78.7,66.6,57.8,53.8,49.3,67,45,25,30.20,30.09,0,0,0,0.00
2013-8-16,96.5,80.4,66.6,58.8,51.9,46.7,61,39,19,30.20,30.09,0,0,0,0.00
2013-8-17,99.2,82.6,67.7,53.7,47.3,40.9,51,32,16,30.18,30.04,0,0,0,0.00
2013-8-18,99.0,84.3,71.7,54.3,47.2,42.4,42,29,17,30.18,30.05,0,0,0,0.00
2013-8-19,99.4,78.5,67.2,59.3,51.2,45.0,73,42,18,30.16,30.03,0,0,0,0.45
2013-8-20,88.8,76.4,65.6,58.9,53.9,45.1,70,48,25,30.14,30.03,0,0,0,0.01
2013-8-21,90.9,78.0,64.5,57.3,48.0,33.9,65,38,20,30.14,30.03,0,0,0,0.00
2013-8-22,90.6,78.1,65.6,50.0,42.1,35.3,41,29,18,30.18,30.03,0,0,0,0.00
2013-8-23,87.3,75.8,67.0,51.2,47.9,45.0,52,38,25,30.14,30.01,0,0,0,0.00
2013-8-24,85.2,75.4,67.9,53.5,49.1,42.0,50,40,29,30.15,30.04,0,0,2,0.04
2013-8-25,89.1,79.1,68.3,58.9,50.8,46.8,63,38,27,30.21,30.09,14,5,16,0.31
2013-8-26,89.1,78.8,68.6,53.8,48.8,44.9,49,36,23,30.22,30.09,16,7,18,0.00
2013-8-27,85.0,75.2,65.7,55.8,51.4,47.4,56,44,32,30.17,30.06,14,4,15,0.00
2013-8-28,78.2,69.8,65.0,61.4,57.2,53.8,82,65,46,30.20,30.09,6,1,7,0.10
2013-8-29,80.5,68.8,61.6,63.8,59.7,57.2,90,74,48,30.26,30.17,8,2,8,0.38
2013-8-30,87.9,74.1,61.8,65.7,59.0,56.3,83,62,39,30.21,30.07,8,2,10,0.00
2013-8-31,93.8,79.0,65.2,63.3,54.9,47.2,73,47,25,30.11,29.98,8,2,8,0.00